createdAt,value
2019-03-24T00:00:01.685Z,1023.50
2019-03-24T00:01:01.585Z,1023.49
2019-03-24T00:02:01.478Z,1023.47
2019-03-24T00:03:01.373Z,1023.51
2019-03-24T00:04:01.269Z,1023.50
2019-03-24T00:05:01.167Z,1023.55
2019-03-24T00:06:01.080Z,1023.53
2019-03-24T00:07:00.959Z,1023.51
2019-03-24T00:08:00.855Z,1023.48
2019-03-24T00:09:00.767Z,1023.52
2019-03-24T00:10:00.693Z,1023.50
2019-03-24T00:11:00.544Z,1023.47
2019-03-24T00:12:00.438Z,1023.52
2019-03-24T00:13:00.339Z,1023.54
2019-03-24T00:14:00.233Z,1023.52
2019-03-24T00:15:00.334Z,1023.52
2019-03-24T00:16:00.026Z,1023.50
2019-03-24T00:16:59.926Z,1023.52
2019-03-24T00:17:59.821Z,1023.46
2019-03-24T00:19:00.015Z,1023.49
2019-03-24T00:19:59.612Z,1023.49
2019-03-24T00:20:59.509Z,1023.50
2019-03-24T00:21:59.404Z,1023.51
2019-03-24T00:22:59.300Z,1023.48
2019-03-24T00:23:59.197Z,1023.53
2019-03-24T00:24:59.098Z,1023.54
2019-03-24T00:25:58.988Z,1023.56
2019-03-24T00:26:58.886Z,1023.54
2019-03-24T00:27:58.781Z,1023.58
2019-03-24T00:28:58.735Z,1023.60
2019-03-24T00:29:58.619Z,1023.56
2019-03-24T00:30:58.469Z,1023.55
2019-03-24T00:31:58.364Z,1023.57
2019-03-24T00:32:58.262Z,1023.56
2019-03-24T00:33:58.157Z,1023.55
2019-03-24T00:34:58.055Z,1023.58
2019-03-24T00:35:57.949Z,1023.55
2019-03-24T00:36:57.846Z,1023.57
2019-03-24T00:37:57.743Z,1023.51
2019-03-24T00:38:57.639Z,1023.52
2019-03-24T00:39:57.534Z,1023.55
2019-03-24T00:40:57.429Z,1023.56
2019-03-24T00:41:57.328Z,1023.56
2019-03-24T00:42:57.223Z,1023.57
2019-03-24T00:43:57.120Z,1023.58
2019-03-24T00:44:57.018Z,1023.56
2019-03-24T00:45:56.914Z,1023.55
2019-03-24T00:46:56.807Z,1023.55
2019-03-24T00:47:56.719Z,1023.52
2019-03-24T00:48:56.651Z,1023.51
2019-03-24T00:49:56.497Z,1023.48
2019-03-24T00:50:56.409Z,1023.51
2019-03-24T00:51:56.287Z,1023.55
2019-03-24T00:52:56.184Z,1023.55
2019-03-24T00:53:56.080Z,1023.53
2019-03-24T00:54:55.977Z,1023.49
2019-03-24T00:55:55.873Z,1023.54
2019-03-24T00:56:55.771Z,1023.51
2019-03-24T00:57:55.674Z,1023.52
2019-03-24T00:58:55.862Z,1023.55
2019-03-24T00:59:55.457Z,1023.52
2019-03-24T01:00:55.355Z,1023.59
2019-03-24T01:01:55.250Z,1023.54
2019-03-24T01:02:55.149Z,1023.55
2019-03-24T01:03:55.045Z,1023.55
2019-03-24T01:04:54.939Z,1023.58
2019-03-24T01:05:54.835Z,1023.56
2019-03-24T01:06:54.732Z,1023.53
2019-03-24T01:07:54.678Z,1023.53
2019-03-24T01:08:54.527Z,1023.53
2019-03-24T01:09:54.421Z,1023.54
2019-03-24T01:10:54.318Z,1023.50
2019-03-24T01:11:54.214Z,1023.48
2019-03-24T01:12:54.109Z,1023.47
2019-03-24T01:13:54.005Z,1023.48
2019-03-24T01:14:53.901Z,1023.47
2019-03-24T01:15:53.798Z,1023.48
2019-03-24T01:16:53.693Z,1023.45
2019-03-24T01:17:53.590Z,1023.47
2019-03-24T01:18:53.487Z,1023.44
2019-03-24T01:19:53.387Z,1023.43
2019-03-24T01:20:53.280Z,1023.45
2019-03-24T01:21:53.176Z,1023.47
2019-03-24T01:22:53.072Z,1023.41
2019-03-24T01:23:52.968Z,1023.40
2019-03-24T01:24:52.863Z,1023.37
2019-03-24T01:25:52.758Z,1023.33
2019-03-24T01:26:52.660Z,1023.36
2019-03-24T01:27:52.597Z,1023.33
2019-03-24T01:28:52.449Z,1023.33
2019-03-24T01:29:52.343Z,1023.35
2019-03-24T01:30:52.240Z,1023.36
2019-03-24T01:31:52.143Z,1023.34
2019-03-24T01:32:52.032Z,1023.35
2019-03-24T01:33:51.934Z,1023.35
2019-03-24T01:34:51.820Z,1023.32
2019-03-24T01:35:51.719Z,1023.29
2019-03-24T01:36:51.620Z,1023.31
2019-03-24T01:37:51.515Z,1023.29
2019-03-24T01:38:51.409Z,1023.30
2019-03-24T01:39:51.303Z,1023.30
2019-03-24T01:40:51.198Z,1023.30
2019-03-24T01:41:51.093Z,1023.26
2019-03-24T01:42:50.990Z,1023.20
2019-03-24T01:43:50.889Z,1023.24
2019-03-24T01:44:50.782Z,1023.21
2019-03-24T01:45:58.226Z,1023.21
2019-03-24T01:46:50.646Z,1023.19
2019-03-24T01:47:50.468Z,1023.22
2019-03-24T01:48:50.365Z,1023.23
2019-03-24T01:49:50.258Z,1023.22
2019-03-24T01:50:50.155Z,1023.21
2019-03-24T01:51:50.051Z,1023.23
2019-03-24T01:52:49.949Z,1023.21
2019-03-24T01:53:49.843Z,1023.24
2019-03-24T01:54:49.737Z,1023.25
2019-03-24T01:55:49.635Z,1023.24
2019-03-24T01:56:49.556Z,1023.25
2019-03-24T01:57:49.425Z,1023.24
2019-03-24T01:58:49.319Z,1023.25
2019-03-24T01:59:49.218Z,1023.21
2019-03-24T02:00:49.112Z,1023.19
2019-03-24T02:01:49.007Z,1023.18
2019-03-24T02:02:48.903Z,1023.18
2019-03-24T02:03:48.852Z,1023.14
2019-03-24T02:04:48.694Z,1023.17
2019-03-24T02:05:48.609Z,1023.21
2019-03-24T02:06:48.556Z,1023.17
2019-03-24T02:07:48.379Z,1023.14
2019-03-24T02:08:48.273Z,1023.15
2019-03-24T02:09:48.170Z,1023.08
2019-03-24T02:10:48.067Z,1023.08
2019-03-24T02:11:47.965Z,1023.10
2019-03-24T02:12:47.859Z,1023.04
2019-03-24T02:13:47.755Z,1023.05
2019-03-24T02:14:47.649Z,1023.10
2019-03-24T02:15:47.546Z,1023.09
2019-03-24T02:16:47.439Z,1023.05
2019-03-24T02:17:47.336Z,1023.07
2019-03-24T02:18:47.230Z,1023.08
2019-03-24T02:19:47.126Z,1023.06
2019-03-24T02:20:47.025Z,1023.06
2019-03-24T02:21:46.915Z,1023.06
2019-03-24T02:22:46.811Z,1023.04
2019-03-24T02:23:46.721Z,1023.06
2019-03-24T02:24:46.601Z,1023.04
2019-03-24T02:25:46.524Z,1023.08
2019-03-24T02:26:46.390Z,1023.07
2019-03-24T02:27:46.288Z,1023.02
2019-03-24T02:28:46.181Z,1023.05
2019-03-24T02:29:46.077Z,1023.06
2019-03-24T02:30:45.972Z,1023.09
2019-03-24T02:31:45.866Z,1023.01
2019-03-24T02:32:45.767Z,1023.04
2019-03-24T02:33:45.655Z,1023.03
2019-03-24T02:34:45.556Z,1023.04
2019-03-24T02:35:45.454Z,1023.01
2019-03-24T02:36:45.347Z,1023.02
2019-03-24T02:37:45.239Z,1023.03
2019-03-24T02:38:45.135Z,1023.01
2019-03-24T02:39:45.029Z,1023.01
2019-03-24T02:40:44.926Z,1022.96
2019-03-24T02:41:44.821Z,1023.00
2019-03-24T02:42:44.719Z,1022.99
2019-03-24T02:43:44.607Z,1023.03
2019-03-24T02:44:44.561Z,1023.05
2019-03-24T02:45:44.399Z,1023.04
2019-03-24T02:46:44.303Z,1023.02
2019-03-24T02:47:44.208Z,1023.05
2019-03-24T02:48:44.098Z,1022.98
2019-03-24T02:49:43.977Z,1022.99
2019-03-24T02:50:43.871Z,1022.95
2019-03-24T02:51:43.768Z,1022.94
2019-03-24T02:52:43.662Z,1022.96
2019-03-24T02:53:43.566Z,1022.89
2019-03-24T02:54:43.453Z,1022.88
2019-03-24T02:55:43.345Z,1022.94
2019-03-24T02:56:43.241Z,1022.90
2019-03-24T02:57:43.138Z,1022.88
2019-03-24T02:58:43.042Z,1022.89
2019-03-24T02:59:42.937Z,1022.90
2019-03-24T03:00:42.822Z,1022.85
2019-03-24T03:01:42.719Z,1022.85
2019-03-24T03:02:42.630Z,1022.90
2019-03-24T03:03:42.543Z,1022.92
2019-03-24T03:04:42.432Z,1022.92
2019-03-24T03:05:42.298Z,1022.86
2019-03-24T03:06:42.191Z,1022.93
2019-03-24T03:07:42.084Z,1022.90
2019-03-24T03:08:41.979Z,1022.89
2019-03-24T03:09:41.873Z,1022.91
2019-03-24T03:10:41.766Z,1022.95
2019-03-24T03:11:41.664Z,1022.91
2019-03-24T03:12:41.558Z,1022.88
2019-03-24T03:13:41.456Z,1022.92
2019-03-24T03:14:41.346Z,1022.93
2019-03-24T03:15:41.242Z,1022.91
2019-03-24T03:16:41.136Z,1022.96
2019-03-24T03:17:41.126Z,1022.93
2019-03-24T03:18:40.925Z,1022.95
2019-03-24T03:19:40.821Z,1022.96
2019-03-24T03:20:40.715Z,1022.93
2019-03-24T03:21:40.608Z,1022.91
2019-03-24T03:22:40.574Z,1022.94
2019-03-24T03:23:40.447Z,1022.95
2019-03-24T03:24:40.291Z,1022.88
2019-03-24T03:25:40.188Z,1022.92
2019-03-24T03:26:40.083Z,1022.94
2019-03-24T03:27:39.980Z,1022.96
2019-03-24T03:28:39.870Z,1022.89
2019-03-24T03:29:39.767Z,1022.92
2019-03-24T03:30:39.664Z,1022.92
2019-03-24T03:31:39.566Z,1022.90
2019-03-24T03:32:39.450Z,1022.85
2019-03-24T03:33:39.355Z,1022.90
2019-03-24T03:34:39.243Z,1022.88
2019-03-24T03:35:39.214Z,1022.90
2019-03-24T03:36:39.030Z,1022.88
2019-03-24T03:37:38.925Z,1022.86
2019-03-24T03:38:38.815Z,1022.88
2019-03-24T03:39:38.710Z,1022.83
2019-03-24T03:40:38.605Z,1022.89
2019-03-24T03:41:38.499Z,1022.96
2019-03-24T03:42:38.530Z,1022.96
2019-03-24T03:43:38.289Z,1022.95
2019-03-24T03:44:38.185Z,1022.98
2019-03-24T03:45:39.233Z,1022.99
2019-03-24T03:46:51.515Z,1022.96
2019-03-24T03:47:37.865Z,1022.96
2019-03-24T03:48:37.761Z,1022.92
2019-03-24T03:49:37.653Z,1022.90
2019-03-24T03:50:37.548Z,1022.89
2019-03-24T03:51:37.441Z,1022.92
2019-03-24T03:52:37.341Z,1022.92
2019-03-24T03:53:37.229Z,1022.93
2019-03-24T03:54:37.124Z,1022.88
2019-03-24T03:55:37.021Z,1022.85
2019-03-24T03:56:36.916Z,1022.86
2019-03-24T03:57:36.808Z,1022.83
2019-03-24T03:58:37.001Z,1022.81
2019-03-24T03:59:36.595Z,1022.84
2019-03-24T04:00:36.497Z,1022.80
2019-03-24T04:01:36.405Z,1022.80
2019-03-24T04:02:36.280Z,1022.78
2019-03-24T04:03:36.175Z,1022.72
2019-03-24T04:04:36.069Z,1022.73
2019-03-24T04:05:35.962Z,1022.72
2019-03-24T04:06:35.854Z,1022.72
2019-03-24T04:07:35.751Z,1022.70
2019-03-24T04:08:35.646Z,1022.70
2019-03-24T04:09:35.538Z,1022.69
2019-03-24T04:10:35.436Z,1022.76
2019-03-24T04:11:35.330Z,1022.70
2019-03-24T04:12:35.223Z,1022.64
2019-03-24T04:13:35.119Z,1022.66
2019-03-24T04:14:35.011Z,1022.64
2019-03-24T04:15:34.903Z,1022.67
2019-03-24T04:16:34.800Z,1022.61
2019-03-24T04:17:34.694Z,1022.62
2019-03-24T04:18:34.889Z,1022.61
2019-03-24T04:19:34.493Z,1022.60
2019-03-24T04:20:34.430Z,1022.60
2019-03-24T04:21:34.270Z,1022.60
2019-03-24T04:22:34.164Z,1022.56
2019-03-24T04:23:34.061Z,1022.57
2019-03-24T04:24:33.952Z,1022.59
2019-03-24T04:25:33.847Z,1022.63
2019-03-24T04:26:33.741Z,1022.62
2019-03-24T04:27:33.636Z,1022.63
2019-03-24T04:28:33.530Z,1022.61
2019-03-24T04:29:33.461Z,1022.62
2019-03-24T04:30:33.319Z,1022.64
2019-03-24T04:31:33.213Z,1022.63
2019-03-24T04:32:33.106Z,1022.60
2019-03-24T04:33:33.004Z,1022.62
2019-03-24T04:34:32.893Z,1022.68
2019-03-24T04:35:32.791Z,1022.70
2019-03-24T04:36:32.691Z,1022.70
2019-03-24T04:37:33.175Z,1022.69
2019-03-24T04:38:32.472Z,1022.72
2019-03-24T04:39:32.429Z,1022.69
2019-03-24T04:40:32.260Z,1022.65
2019-03-24T04:41:32.157Z,1022.72
2019-03-24T04:42:32.046Z,1022.65
2019-03-24T04:43:31.941Z,1022.67
2019-03-24T04:44:31.833Z,1022.67
2019-03-24T04:45:31.729Z,1022.67
2019-03-24T04:46:31.622Z,1022.64
2019-03-24T04:47:31.515Z,1022.67
2019-03-24T04:48:31.408Z,1022.63
2019-03-24T04:49:31.304Z,1022.64
2019-03-24T04:50:31.200Z,1022.62
2019-03-24T04:51:31.093Z,1022.59
2019-03-24T04:52:30.987Z,1022.64
2019-03-24T04:53:30.885Z,1022.56
2019-03-24T04:54:30.774Z,1022.55
2019-03-24T04:55:30.670Z,1022.58
2019-03-24T04:56:30.563Z,1022.57
2019-03-24T04:57:30.456Z,1022.62
2019-03-24T04:58:30.412Z,1022.60
2019-03-24T04:59:30.258Z,1022.59
2019-03-24T05:00:30.140Z,1022.56
2019-03-24T05:01:30.033Z,1022.59
2019-03-24T05:02:29.930Z,1022.51
2019-03-24T05:03:29.819Z,1022.52
2019-03-24T05:04:29.714Z,1022.51
2019-03-24T05:05:29.610Z,1022.48
2019-03-24T05:06:29.517Z,1022.49
2019-03-24T05:07:29.395Z,1022.48
2019-03-24T05:08:29.289Z,1022.50
2019-03-24T05:09:29.182Z,1022.47
2019-03-24T05:10:29.075Z,1022.50
2019-03-24T05:11:28.971Z,1022.50
2019-03-24T05:12:28.867Z,1022.49
2019-03-24T05:13:28.761Z,1022.48
2019-03-24T05:14:28.652Z,1022.48
2019-03-24T05:15:28.546Z,1022.49
2019-03-24T05:16:28.440Z,1022.48
2019-03-24T05:17:28.385Z,1022.44
2019-03-24T05:18:28.245Z,1022.55
2019-03-24T05:19:28.121Z,1022.48
2019-03-24T05:20:28.016Z,1022.48
2019-03-24T05:21:27.911Z,1022.50
2019-03-24T05:22:27.803Z,1022.48
2019-03-24T05:23:27.703Z,1022.50
2019-03-24T05:24:27.594Z,1022.52
2019-03-24T05:25:27.486Z,1022.51
2019-03-24T05:26:27.380Z,1022.51
2019-03-24T05:27:27.272Z,1022.54
2019-03-24T05:28:27.169Z,1022.54
2019-03-24T05:29:27.062Z,1022.57
2019-03-24T05:30:26.960Z,1022.53
2019-03-24T05:31:26.861Z,1022.54
2019-03-24T05:32:26.745Z,1022.54
2019-03-24T05:33:26.640Z,1022.49
2019-03-24T05:34:26.534Z,1022.51
2019-03-24T05:35:26.429Z,1022.48
2019-03-24T05:36:26.372Z,1022.50
2019-03-24T05:37:26.266Z,1022.48
2019-03-24T05:38:26.114Z,1022.46
2019-03-24T05:39:26.008Z,1022.48
2019-03-24T05:40:25.902Z,1022.48
2019-03-24T05:41:25.795Z,1022.48
2019-03-24T05:42:25.691Z,1022.50
2019-03-24T05:43:25.584Z,1022.49
2019-03-24T05:44:25.482Z,1022.46
2019-03-24T05:45:25.374Z,1022.49
2019-03-24T05:46:25.272Z,1022.49
2019-03-24T05:47:25.165Z,1022.51
2019-03-24T05:48:25.061Z,1022.49
2019-03-24T05:49:24.958Z,1022.49
2019-03-24T05:50:24.852Z,1022.46
2019-03-24T05:51:24.749Z,1022.46
2019-03-24T05:52:24.643Z,1022.44
2019-03-24T05:53:24.538Z,1022.47
2019-03-24T05:54:24.434Z,1022.39
2019-03-24T05:55:24.339Z,1022.44
2019-03-24T05:56:24.271Z,1022.44
2019-03-24T05:57:24.120Z,1022.49
2019-03-24T05:58:24.014Z,1022.52
2019-03-24T05:59:23.917Z,1022.55
2019-03-24T06:00:23.809Z,1022.53
2019-03-24T06:01:23.700Z,1022.53
2019-03-24T06:02:23.596Z,1022.52
2019-03-24T06:03:23.789Z,1022.51
2019-03-24T06:04:23.389Z,1022.48
2019-03-24T06:05:23.279Z,1022.46
2019-03-24T06:06:23.174Z,1022.50
2019-03-24T06:07:23.071Z,1022.48
2019-03-24T06:08:22.966Z,1022.48
2019-03-24T06:09:22.859Z,1022.47
2019-03-24T06:10:22.755Z,1022.47
2019-03-24T06:11:22.653Z,1022.43
2019-03-24T06:12:22.549Z,1022.44
2019-03-24T06:13:22.449Z,1022.43
2019-03-24T06:14:22.338Z,1022.42
2019-03-24T06:15:22.311Z,1022.41
2019-03-24T06:16:22.129Z,1022.44
2019-03-24T06:17:22.023Z,1022.48
2019-03-24T06:18:21.920Z,1022.37
2019-03-24T06:19:21.816Z,1022.40
2019-03-24T06:20:21.710Z,1022.43
2019-03-24T06:21:21.603Z,1022.40
2019-03-24T06:22:21.501Z,1022.41
2019-03-24T06:23:21.396Z,1022.36
2019-03-24T06:24:21.297Z,1022.40
2019-03-24T06:25:21.190Z,1022.32
2019-03-24T06:26:21.084Z,1022.30
2019-03-24T06:27:20.987Z,1022.31
2019-03-24T06:28:20.877Z,1022.27
2019-03-24T06:29:20.773Z,1022.27
2019-03-24T06:30:20.671Z,1022.29
2019-03-24T06:31:20.566Z,1022.31
2019-03-24T06:32:20.464Z,1022.33
2019-03-24T06:33:20.359Z,1022.36
2019-03-24T06:34:20.288Z,1022.39
2019-03-24T06:35:20.227Z,1022.36
2019-03-24T06:36:20.050Z,1022.34
2019-03-24T06:37:19.949Z,1022.31
2019-03-24T06:38:20.226Z,1022.32
2019-03-24T06:39:19.746Z,1022.28
2019-03-24T06:40:19.881Z,1022.34
2019-03-24T06:41:19.539Z,1022.33
2019-03-24T06:42:19.437Z,1022.30
2019-03-24T06:43:19.334Z,1022.31
2019-03-24T06:44:19.233Z,1022.31
2019-03-24T06:45:28.039Z,1022.32
2019-03-24T06:46:19.028Z,1022.34
2019-03-24T06:47:18.926Z,1022.38
2019-03-24T06:48:18.831Z,1022.34
2019-03-24T06:49:18.729Z,1022.38
2019-03-24T06:50:18.625Z,1022.36
2019-03-24T06:51:18.521Z,1022.42
2019-03-24T06:52:18.420Z,1022.42
2019-03-24T06:53:18.317Z,1022.43
2019-03-24T06:54:18.263Z,1022.44
2019-03-24T06:55:18.183Z,1022.47
2019-03-24T06:56:18.017Z,1022.45
2019-03-24T06:57:17.915Z,1022.38
2019-03-24T06:58:17.812Z,1022.35
2019-03-24T06:59:17.713Z,1022.41
2019-03-24T07:00:17.613Z,1022.40
2019-03-24T07:01:17.514Z,1022.35
2019-03-24T07:02:17.410Z,1022.31
2019-03-24T07:03:17.314Z,1022.32
2019-03-24T07:04:17.212Z,1022.31
2019-03-24T07:05:17.112Z,1022.37
2019-03-24T07:06:17.012Z,1022.37
2019-03-24T07:07:16.915Z,1022.34
2019-03-24T07:08:16.813Z,1022.36
2019-03-24T07:09:16.713Z,1022.34
2019-03-24T07:10:16.614Z,1022.33
2019-03-24T07:11:16.517Z,1022.31
2019-03-24T07:12:16.415Z,1022.28
2019-03-24T07:13:16.316Z,1022.29
2019-03-24T07:14:16.237Z,1022.30
2019-03-24T07:15:16.186Z,1022.33
2019-03-24T07:16:16.016Z,1022.27
2019-03-24T07:17:15.914Z,1022.32
2019-03-24T07:18:15.816Z,1022.33
2019-03-24T07:19:15.715Z,1022.34
2019-03-24T07:20:15.615Z,1022.34
2019-03-24T07:21:15.518Z,1022.31
2019-03-24T07:22:15.414Z,1022.32
2019-03-24T07:23:15.311Z,1022.27
2019-03-24T07:24:15.215Z,1022.28
2019-03-24T07:25:15.112Z,1022.24
2019-03-24T07:26:15.009Z,1022.24
2019-03-24T07:27:14.911Z,1022.25
2019-03-24T07:28:14.810Z,1022.27
2019-03-24T07:29:14.707Z,1022.24
2019-03-24T07:30:14.608Z,1022.26
2019-03-24T07:31:14.506Z,1022.28
2019-03-24T07:32:14.406Z,1022.25
2019-03-24T07:33:14.311Z,1022.24
2019-03-24T07:34:14.218Z,1022.23
2019-03-24T07:35:14.153Z,1022.24
2019-03-24T07:36:13.999Z,1022.22
2019-03-24T07:37:13.899Z,1022.24
2019-03-24T07:38:13.798Z,1022.18
2019-03-24T07:39:13.698Z,1022.18
2019-03-24T07:40:13.594Z,1022.14
2019-03-24T07:41:13.493Z,1022.13
2019-03-24T07:42:13.393Z,1022.12
2019-03-24T07:43:13.291Z,1022.12
2019-03-24T07:44:13.191Z,1022.11
2019-03-24T07:45:13.088Z,1022.12
2019-03-24T07:46:12.986Z,1022.08
2019-03-24T07:47:12.885Z,1022.10
2019-03-24T07:48:18.989Z,1022.13
2019-03-24T07:49:12.679Z,1022.15
2019-03-24T07:50:12.581Z,1022.13
2019-03-24T07:51:12.479Z,1022.14
2019-03-24T07:52:12.378Z,1022.17
2019-03-24T07:53:12.276Z,1022.15
2019-03-24T07:54:12.182Z,1022.19
2019-03-24T07:55:12.125Z,1022.16
2019-03-24T07:56:11.970Z,1022.17
2019-03-24T07:57:11.868Z,1022.18
2019-03-24T07:58:11.768Z,1022.17
2019-03-24T07:59:11.665Z,1022.14
2019-03-24T08:00:11.571Z,1022.14
2019-03-24T08:01:11.465Z,1022.12
2019-03-24T08:02:11.361Z,1022.12
2019-03-24T08:03:11.257Z,1022.19
2019-03-24T08:04:11.155Z,1022.15
2019-03-24T08:05:11.054Z,1022.18
2019-03-24T08:06:10.953Z,1022.19
2019-03-24T08:07:10.851Z,1022.20
2019-03-24T08:08:10.749Z,1022.23
2019-03-24T08:09:10.645Z,1022.24
2019-03-24T08:10:10.544Z,1022.25
2019-03-24T08:11:10.443Z,1022.17
2019-03-24T08:12:10.343Z,1022.18
2019-03-24T08:13:10.242Z,1022.20
2019-03-24T08:14:10.162Z,1022.22
2019-03-24T08:15:10.094Z,1022.20
2019-03-24T08:16:09.935Z,1022.17
2019-03-24T08:17:09.832Z,1022.12
2019-03-24T08:18:09.735Z,1022.10
2019-03-24T08:19:09.629Z,1022.08
2019-03-24T08:20:09.529Z,1022.07
2019-03-24T08:21:09.429Z,1022.07
2019-03-24T08:22:09.326Z,1022.06
2019-03-24T08:23:09.222Z,1022.08
2019-03-24T08:24:09.124Z,1022.07
2019-03-24T08:25:09.019Z,1022.07
2019-03-24T08:26:08.919Z,1022.09
2019-03-24T08:27:08.817Z,1022.04
2019-03-24T08:28:08.715Z,1022.05
2019-03-24T08:29:08.614Z,1022.04
2019-03-24T08:30:08.512Z,1022.01
2019-03-24T08:31:08.410Z,1022.00
2019-03-24T08:32:08.309Z,1022.01
2019-03-24T08:33:08.208Z,1021.96
2019-03-24T08:34:08.151Z,1021.90
2019-03-24T08:35:08.081Z,1021.85
2019-03-24T08:36:07.903Z,1021.85
2019-03-24T08:37:07.801Z,1021.78
2019-03-24T08:38:07.711Z,1021.75
2019-03-24T08:39:07.601Z,1021.77
2019-03-24T08:40:07.501Z,1021.76
2019-03-24T08:41:07.396Z,1021.74
2019-03-24T08:42:07.299Z,1021.71
2019-03-24T08:43:07.196Z,1021.73
2019-03-24T08:44:07.093Z,1021.73
2019-03-24T08:45:06.991Z,1021.69
2019-03-24T08:46:06.891Z,1021.66
2019-03-24T08:47:06.789Z,1021.67
2019-03-24T08:48:06.688Z,1021.65
2019-03-24T08:49:06.585Z,1021.64
2019-03-24T08:50:06.488Z,1021.64
2019-03-24T08:51:06.388Z,1021.64
2019-03-24T08:52:06.286Z,1021.61
2019-03-24T08:53:06.188Z,1021.60
2019-03-24T08:54:06.135Z,1021.66
2019-03-24T08:55:06.046Z,1021.63
2019-03-24T08:56:05.878Z,1021.63
2019-03-24T08:57:05.780Z,1021.65
2019-03-24T08:58:05.678Z,1021.63
2019-03-24T08:59:05.574Z,1021.63
2019-03-24T09:00:05.478Z,1021.59
2019-03-24T09:01:05.371Z,1021.59
2019-03-24T09:02:05.272Z,1021.50
2019-03-24T09:03:05.174Z,1021.50
2019-03-24T09:04:05.069Z,1021.46
2019-03-24T09:05:04.972Z,1021.47
2019-03-24T09:06:04.865Z,1021.45
2019-03-24T09:07:04.767Z,1021.40
2019-03-24T09:08:04.666Z,1021.35
2019-03-24T09:09:04.564Z,1021.34
2019-03-24T09:10:04.465Z,1021.30
2019-03-24T09:11:04.365Z,1021.30
2019-03-24T09:12:04.269Z,1021.28
2019-03-24T09:13:04.167Z,1021.28
2019-03-24T09:14:04.094Z,1021.29
2019-03-24T09:15:04.029Z,1021.28
2019-03-24T09:16:03.864Z,1021.28
2019-03-24T09:17:03.765Z,1021.20
2019-03-24T09:18:03.666Z,1021.24
2019-03-24T09:19:03.566Z,1021.21
2019-03-24T09:20:03.466Z,1021.21
2019-03-24T09:21:03.367Z,1021.19
2019-03-24T09:22:03.265Z,1021.17
2019-03-24T09:23:03.167Z,1021.16
2019-03-24T09:24:03.065Z,1021.17
2019-03-24T09:25:02.965Z,1021.13
2019-03-24T09:26:02.867Z,1021.13
2019-03-24T09:27:02.769Z,1021.16
2019-03-24T09:28:02.666Z,1021.13
2019-03-24T09:29:02.567Z,1021.14
2019-03-24T09:30:02.467Z,1021.14
2019-03-24T09:31:02.370Z,1021.08
2019-03-24T09:32:02.268Z,1021.07
2019-03-24T09:33:02.170Z,1021.04
2019-03-24T09:34:02.074Z,1021.02
2019-03-24T09:35:02.013Z,1021.01
2019-03-24T09:36:01.902Z,1021.00
2019-03-24T09:37:01.770Z,1021.04
2019-03-24T09:38:01.671Z,1021.02
2019-03-24T09:39:01.567Z,1021.00
2019-03-24T09:40:01.470Z,1020.99
2019-03-24T09:41:01.367Z,1021.00
2019-03-24T09:42:01.271Z,1020.96
2019-03-24T09:43:01.169Z,1020.95
2019-03-24T09:44:01.068Z,1020.95
2019-03-24T09:45:00.970Z,1020.92
2019-03-24T09:46:00.870Z,1020.89
2019-03-24T09:47:00.767Z,1020.88
2019-03-24T09:48:00.666Z,1020.87
2019-03-24T09:49:03.417Z,1020.87
2019-03-24T09:50:00.469Z,1020.87
2019-03-24T09:51:00.366Z,1020.91
2019-03-24T09:52:00.265Z,1020.91
2019-03-24T09:53:00.162Z,1020.90
2019-03-24T09:54:00.063Z,1020.92
2019-03-24T09:55:00.021Z,1020.94
2019-03-24T09:55:59.861Z,1020.90
2019-03-24T09:56:59.760Z,1020.88
2019-03-24T09:57:59.659Z,1020.93
2019-03-24T09:58:59.555Z,1020.85
2019-03-24T09:59:59.458Z,1020.87
2019-03-24T10:00:59.354Z,1020.80
2019-03-24T10:01:59.251Z,1020.82
2019-03-24T10:02:59.155Z,1020.80
2019-03-24T10:03:59.055Z,1020.78
2019-03-24T10:04:58.950Z,1020.79
2019-03-24T10:05:58.849Z,1020.76
2019-03-24T10:06:58.748Z,1020.75
2019-03-24T10:07:58.649Z,1020.75
2019-03-24T10:08:58.549Z,1020.74
2019-03-24T10:09:58.448Z,1020.76
2019-03-24T10:10:58.345Z,1020.72
2019-03-24T10:11:58.244Z,1020.72
2019-03-24T10:12:58.141Z,1020.73
2019-03-24T10:13:58.040Z,1020.65
2019-03-24T10:14:58.013Z,1020.66
2019-03-24T10:15:57.839Z,1020.68
2019-03-24T10:16:57.737Z,1020.66
2019-03-24T10:17:57.949Z,1020.61
2019-03-24T10:18:57.536Z,1020.57
2019-03-24T10:19:57.433Z,1020.57
2019-03-24T10:20:57.331Z,1020.49
2019-03-24T10:21:57.234Z,1020.44
2019-03-24T10:22:57.140Z,1020.43
2019-03-24T10:23:57.029Z,1020.39
2019-03-24T10:24:56.927Z,1020.40
2019-03-24T10:25:56.827Z,1020.41
2019-03-24T10:26:56.727Z,1020.41
2019-03-24T10:27:56.625Z,1020.37
2019-03-24T10:28:56.524Z,1020.30
2019-03-24T10:29:56.424Z,1020.36
2019-03-24T10:30:56.323Z,1020.38
2019-03-24T10:31:56.224Z,1020.35
2019-03-24T10:32:56.124Z,1020.35
2019-03-24T10:33:56.021Z,1020.35
2019-03-24T10:34:55.987Z,1020.33
2019-03-24T10:35:55.821Z,1020.34
2019-03-24T10:36:55.718Z,1020.33
2019-03-24T10:37:55.618Z,1020.35
2019-03-24T10:38:55.521Z,1020.38
2019-03-24T10:39:55.418Z,1020.40
2019-03-24T10:40:55.315Z,1020.34
2019-03-24T10:41:55.216Z,1020.32
2019-03-24T10:42:55.114Z,1020.33
2019-03-24T10:43:55.016Z,1020.34
2019-03-24T10:44:54.915Z,1020.32
2019-03-24T10:45:54.815Z,1020.29
2019-03-24T10:46:54.714Z,1020.29
2019-03-24T10:47:54.914Z,1020.29
2019-03-24T10:48:54.514Z,1020.28
2019-03-24T10:49:54.416Z,1020.25
2019-03-24T10:50:54.311Z,1020.29
2019-03-24T10:51:54.212Z,1020.22
2019-03-24T10:52:54.112Z,1020.21
2019-03-24T10:53:54.057Z,1020.20
2019-03-24T10:54:53.964Z,1020.17
2019-03-24T10:55:53.823Z,1020.15
2019-03-24T10:56:53.709Z,1020.11
2019-03-24T10:57:53.608Z,1020.08
2019-03-24T10:58:53.510Z,1020.04
2019-03-24T10:59:53.409Z,1020.01
2019-03-24T11:00:53.309Z,1020.02
2019-03-24T11:01:53.210Z,1019.98
2019-03-24T11:02:53.107Z,1019.96
2019-03-24T11:03:53.010Z,1019.91
2019-03-24T11:04:52.905Z,1019.99
2019-03-24T11:05:52.804Z,1019.91
2019-03-24T11:06:52.707Z,1019.83
2019-03-24T11:07:52.604Z,1019.85
2019-03-24T11:08:52.506Z,1019.87
2019-03-24T11:09:52.404Z,1019.84
2019-03-24T11:10:52.299Z,1019.89
2019-03-24T11:11:52.200Z,1019.85
2019-03-24T11:12:52.102Z,1019.84
2019-03-24T11:13:52.000Z,1019.79
2019-03-24T11:14:51.950Z,1019.78
2019-03-24T11:15:51.871Z,1019.75
2019-03-24T11:16:51.696Z,1019.70
2019-03-24T11:17:51.595Z,1019.67
2019-03-24T11:18:51.493Z,1019.66
2019-03-24T11:19:51.396Z,1019.63
2019-03-24T11:20:51.290Z,1019.69
2019-03-24T11:21:51.189Z,1019.67
2019-03-24T11:22:51.089Z,1019.63
2019-03-24T11:23:50.990Z,1019.63
2019-03-24T11:24:50.886Z,1019.61
2019-03-24T11:25:50.784Z,1019.60
2019-03-24T11:26:50.686Z,1019.56
2019-03-24T11:27:50.584Z,1019.57
2019-03-24T11:28:50.482Z,1019.52
2019-03-24T11:29:50.379Z,1019.53
2019-03-24T11:30:50.279Z,1019.55
2019-03-24T11:31:50.179Z,1019.58
2019-03-24T11:32:50.077Z,1019.54
2019-03-24T11:33:49.977Z,1019.56
2019-03-24T11:34:49.925Z,1019.49
2019-03-24T11:35:49.814Z,1019.45
2019-03-24T11:36:49.674Z,1019.38
2019-03-24T11:37:49.879Z,1019.39
2019-03-24T11:38:49.472Z,1019.38
2019-03-24T11:39:49.371Z,1019.37
2019-03-24T11:40:49.269Z,1019.34
2019-03-24T11:41:49.169Z,1019.37
2019-03-24T11:42:49.068Z,1019.36
2019-03-24T11:43:48.966Z,1019.36
2019-03-24T11:44:48.867Z,1019.38
2019-03-24T11:45:48.764Z,1019.38
2019-03-24T11:46:48.667Z,1019.41
2019-03-24T11:47:48.571Z,1019.42
2019-03-24T11:48:48.462Z,1019.41
2019-03-24T11:49:49.162Z,1019.39
2019-03-24T11:50:48.263Z,1019.37
2019-03-24T11:51:48.159Z,1019.37
2019-03-24T11:52:48.058Z,1019.29
2019-03-24T11:53:48.003Z,1019.29
2019-03-24T11:54:47.910Z,1019.26
2019-03-24T11:55:47.832Z,1019.22
2019-03-24T11:56:47.657Z,1019.22
2019-03-24T11:57:47.555Z,1019.23
2019-03-24T11:58:47.477Z,1019.21
2019-03-24T11:59:47.356Z,1019.17
2019-03-24T12:00:47.255Z,1019.18
2019-03-24T12:01:47.152Z,1019.22
2019-03-24T12:02:47.052Z,1019.21
2019-03-24T12:03:46.954Z,1019.18